createdAt,value
2022-08-12T00:00:53.954Z,99359.84
2022-08-12T00:03:39.742Z,99367.97
2022-08-12T00:06:27.396Z,99366.09
2022-08-12T00:09:13.054Z,99353.50
2022-08-12T00:11:59.059Z,99368.75
2022-08-12T00:14:44.680Z,99365.00
2022-08-12T00:17:31.012Z,99367.06
2022-08-12T00:20:16.434Z,99364.88
2022-08-12T00:23:03.778Z,99371.13
2022-08-12T00:26:20.654Z,99359.88
2022-08-12T00:29:02.754Z,99369.94
2022-08-12T00:31:48.326Z,99372.16
2022-08-12T00:34:34.252Z,99365.41
2022-08-12T00:37:20.123Z,99369.94
2022-08-12T00:40:11.637Z,99371.84
2022-08-12T00:42:41.812Z,99361.38
2022-08-12T00:45:11.240Z,99362.16
2022-08-12T00:47:39.749Z,99356.03
2022-08-12T00:50:09.966Z,99341.31
2022-08-12T00:52:37.834Z,99346.16
2022-08-12T00:55:08.352Z,99344.88
2022-08-12T00:57:37.414Z,99347.25
2022-08-12T01:00:09.692Z,99350.50
2022-08-12T01:02:40.714Z,99363.75
2022-08-12T01:05:29.133Z,99358.91
2022-08-12T01:08:15.087Z,99350.50
2022-08-12T01:11:04.739Z,99362.44
2022-08-12T01:13:35.215Z,99353.19
2022-08-12T01:16:05.652Z,99356.47
2022-08-12T01:18:34.471Z,99355.22
2022-08-12T01:21:11.963Z,99364.09
2022-08-12T01:23:52.317Z,99363.75
2022-08-12T01:26:24.336Z,99366.44
2022-08-12T01:28:58.683Z,99368.13
2022-08-12T01:31:27.919Z,99352.19
2022-08-12T01:34:03.657Z,99354.59
2022-08-12T01:36:37.446Z,99357.59
2022-08-12T01:39:06.085Z,99355.91
2022-08-12T01:41:42.583Z,99361.75
2022-08-12T01:44:20.606Z,99354.88
2022-08-12T01:46:59.060Z,99358.84
2022-08-12T01:49:51.597Z,99352.38
2022-08-12T01:52:29.537Z,99351.75
2022-08-12T01:54:58.649Z,99346.47
2022-08-12T01:57:58.701Z,99339.16
2022-08-12T02:00:46.044Z,99345.75
2022-08-12T02:04:03.260Z,99350.94
2022-08-12T02:06:55.255Z,99349.16
2022-08-12T02:09:51.261Z,99345.31
2022-08-12T02:12:31.258Z,99341.06
2022-08-12T02:15:13.186Z,99334.59
2022-08-12T02:18:00.181Z,99340.22
2022-08-12T02:20:52.424Z,99337.31
2022-08-12T02:23:27.134Z,99339.22
2022-08-12T02:25:59.518Z,99345.06
2022-08-12T02:28:28.851Z,99332.28
2022-08-12T02:31:02.892Z,99334.31
2022-08-12T02:33:32.175Z,99333.47
2022-08-12T02:36:01.389Z,99332.25
2022-08-12T02:38:31.201Z,99326.00
2022-08-12T02:41:02.504Z,99322.75
2022-08-12T02:43:38.064Z,99333.69
2022-08-12T02:46:14.166Z,99329.78
2022-08-12T02:48:50.562Z,99333.16
2022-08-12T02:51:20.478Z,99324.03
2022-08-12T02:54:05.731Z,99326.19
2022-08-12T02:56:37.822Z,99334.66
2022-08-12T02:59:06.868Z,99323.13
2022-08-12T03:01:47.393Z,99334.69
2022-08-12T03:04:26.872Z,99343.22
2022-08-12T03:07:03.060Z,99328.31
2022-08-12T03:09:51.485Z,99345.56
2022-08-12T03:12:24.551Z,99340.44
2022-08-12T03:14:54.358Z,99342.00
2022-08-12T03:17:29.278Z,99328.50
2022-08-12T03:20:09.545Z,99324.94
2022-08-12T03:22:40.676Z,99329.41
2022-08-12T03:25:17.411Z,99328.06
2022-08-12T03:27:49.799Z,99318.03
2022-08-12T03:30:19.517Z,99324.72
2022-08-12T03:32:51.921Z,99327.25
2022-08-12T03:35:41.263Z,99326.56
2022-08-12T03:38:16.171Z,99331.53
2022-08-12T03:41:15.234Z,99332.00
2022-08-12T03:44:10.838Z,99334.88
2022-08-12T03:47:01.014Z,99331.13
2022-08-12T03:49:48.318Z,99334.56
2022-08-12T03:52:33.784Z,99332.13
2022-08-12T03:55:19.401Z,99335.78
2022-08-12T03:58:07.534Z,99339.84
2022-08-12T04:00:38.260Z,99344.34
2022-08-12T04:03:26.376Z,99345.09
2022-08-12T04:05:56.876Z,99348.94
2022-08-12T04:08:25.802Z,99341.41
2022-08-12T04:11:12.147Z,99344.19
2022-08-12T04:13:40.772Z,99344.19
2022-08-12T04:16:11.020Z,99339.94
2022-08-12T04:18:40.496Z,99343.97
2022-08-12T04:21:10.795Z,99341.59
2022-08-12T04:23:40.951Z,99343.50
2022-08-12T04:26:10.409Z,99348.78
2022-08-12T04:28:38.414Z,99348.66
2022-08-12T04:31:06.584Z,99348.88
2022-08-12T04:33:35.553Z,99348.88
2022-08-12T04:36:03.390Z,99350.56
2022-08-12T04:38:34.532Z,99359.66
2022-08-12T04:41:03.530Z,99357.75
2022-08-12T04:44:01.375Z,99355.63
2022-08-12T04:46:23.322Z,99355.28
2022-08-12T04:48:52.890Z,99358.56
2022-08-12T04:51:21.783Z,99356.78
2022-08-12T04:53:52.159Z,99346.13
2022-08-12T04:56:20.659Z,99358.81
2022-08-12T04:58:52.598Z,99357.91
2022-08-12T05:01:21.022Z,99359.94
2022-08-12T05:03:51.465Z,99358.13
2022-08-12T05:06:26.318Z,99364.75
2022-08-12T05:08:57.429Z,99357.41
2022-08-12T05:11:25.993Z,99357.97
2022-08-12T05:13:59.716Z,99352.00
2022-08-12T05:16:31.149Z,99355.03
2022-08-12T05:19:02.430Z,99356.41
2022-08-12T05:21:30.849Z,99357.94
2022-08-12T05:24:00.954Z,99364.81
2022-08-12T05:26:29.445Z,99361.09
2022-08-12T05:28:57.449Z,99369.63
2022-08-12T05:31:47.505Z,99373.56
2022-08-12T05:34:15.520Z,99373.00
2022-08-12T05:36:44.842Z,99373.19
2022-08-12T05:39:14.147Z,99373.75
2022-08-12T05:41:42.036Z,99370.31
2022-08-12T05:44:12.739Z,99369.84
2022-08-12T05:46:41.273Z,99374.69
2022-08-12T05:49:09.560Z,99370.31
2022-08-12T05:51:40.476Z,99376.66
2022-08-12T05:54:11.181Z,99375.81
2022-08-12T05:56:41.484Z,99381.91
2022-08-12T05:59:11.989Z,99379.13
2022-08-12T06:02:09.314Z,99375.72
2022-08-12T06:04:28.874Z,99378.75
2022-08-12T06:06:58.057Z,99378.63
2022-08-12T06:09:28.695Z,99379.63
2022-08-12T06:12:04.459Z,99379.19
2022-08-12T06:14:38.758Z,99380.91
2022-08-12T06:17:08.758Z,99380.38
2022-08-12T06:20:25.966Z,99388.38
2022-08-12T06:22:26.009Z,99380.84
2022-08-12T06:24:54.249Z,99385.84
2022-08-12T06:27:23.422Z,99384.06
2022-08-12T06:30:08.482Z,99389.00
2022-08-12T06:33:04.337Z,99389.22
2022-08-12T06:35:47.879Z,99386.16
2022-08-12T06:38:17.735Z,99388.59
2022-08-12T06:41:04.605Z,99386.97
2022-08-12T06:44:05.455Z,99379.06
2022-08-12T06:46:23.057Z,99379.00
2022-08-12T06:48:55.106Z,99383.81
2022-08-12T06:51:23.383Z,99387.22
2022-08-12T06:53:51.249Z,99386.00
2022-08-12T06:56:19.212Z,99385.03
2022-08-12T06:58:48.641Z,99376.91
2022-08-12T07:01:17.517Z,99387.28
2022-08-12T07:03:45.904Z,99389.97
2022-08-12T07:08:43.996Z,99386.34
2022-08-12T07:11:13.711Z,99389.50
2022-08-12T07:14:11.424Z,99382.91
2022-08-12T07:16:49.228Z,99384.06
2022-08-12T07:19:17.349Z,99374.63
2022-08-12T07:21:59.875Z,99382.41
2022-08-12T07:24:31.057Z,99383.59
2022-08-12T07:26:59.357Z,99382.44
2022-08-12T07:29:58.144Z,99382.22
2022-08-12T07:32:18.360Z,99382.81
2022-08-12T07:34:47.385Z,99382.59
2022-08-12T07:37:17.764Z,99383.41
2022-08-12T07:39:50.362Z,99384.97
2022-08-12T07:42:28.310Z,99376.72
2022-08-12T07:44:56.915Z,99379.34
2022-08-12T07:47:27.671Z,99374.41
2022-08-12T07:50:04.453Z,99367.13
2022-08-12T07:52:34.058Z,99374.41
2022-08-12T07:55:02.378Z,99370.53
2022-08-12T07:57:32.564Z,99370.47
2022-08-12T08:00:04.875Z,99369.81
2022-08-12T08:02:37.926Z,99374.25
2022-08-12T08:05:06.781Z,99371.66
2022-08-12T08:07:35.364Z,99364.41
2022-08-12T08:10:07.741Z,99365.47
2022-08-12T08:12:53.077Z,99361.50
2022-08-12T08:15:33.681Z,99352.44
2022-08-12T08:18:14.975Z,99362.16
2022-08-12T08:20:55.912Z,99360.34
2022-08-12T08:23:46.383Z,99356.50
2022-08-12T08:26:16.077Z,99364.28
2022-08-12T08:28:44.350Z,99354.63
2022-08-12T08:31:14.264Z,99352.97
2022-08-12T08:34:01.407Z,99348.50
2022-08-12T08:36:31.800Z,99345.28
2022-08-12T08:38:59.593Z,99348.13
2022-08-12T08:42:16.225Z,99345.28
2022-08-12T08:44:33.360Z,99334.69
2022-08-12T08:47:02.336Z,99345.88
2022-08-12T08:49:31.549Z,99339.66
2022-08-12T08:52:02.787Z,99341.00
2022-08-12T08:54:33.633Z,99331.06
2022-08-12T08:57:02.745Z,99336.25
2022-08-12T08:59:30.848Z,99328.63
2022-08-12T09:02:00.559Z,99332.66
2022-08-12T09:05:11.741Z,99320.28
2022-08-12T09:07:51.003Z,99329.16
2022-08-12T09:10:15.696Z,99326.84
2022-08-12T09:13:23.419Z,99327.94
2022-08-12T09:15:59.325Z,99321.53
2022-08-12T09:18:33.302Z,99327.03
2022-08-12T09:21:01.923Z,99329.19
2022-08-12T09:23:59.705Z,99324.28
2022-08-12T09:26:28.774Z,99325.25
2022-08-12T09:28:58.264Z,99323.63
2022-08-12T09:32:02.763Z,99323.59
2022-08-12T09:34:28.602Z,99317.66
2022-08-12T09:37:19.568Z,99312.22
2022-08-12T09:40:02.373Z,99311.56
2022-08-12T09:43:15.592Z,99321.41
2022-08-12T09:46:06.822Z,99311.72
2022-08-12T09:48:35.809Z,99312.78
2022-08-12T09:51:17.198Z,99312.00
2022-08-12T09:54:08.824Z,99308.25
2022-08-12T09:56:59.208Z,99306.06
2022-08-12T10:00:12.641Z,99293.66
2022-08-12T10:02:45.039Z,99298.19
2022-08-12T10:05:13.894Z,99298.06
2022-08-12T10:07:45.985Z,99291.38
2022-08-12T10:10:23.764Z,99281.31
2022-08-12T10:13:34.698Z,99276.59
2022-08-12T10:16:06.299Z,99284.38
2022-08-12T10:18:51.595Z,99284.41
2022-08-12T10:21:23.402Z,99280.72
2022-08-12T10:23:56.623Z,99268.63
2022-08-12T10:26:44.830Z,99268.97
2022-08-12T10:30:38.042Z,99278.94
2022-08-12T10:32:45.570Z,99268.50
2022-08-12T10:35:10.798Z,99259.53
2022-08-12T10:38:32.327Z,99260.50
2022-08-12T10:40:31.915Z,99251.84
2022-08-12T10:43:17.947Z,99251.25
2022-08-12T10:45:50.052Z,99250.84
2022-08-12T10:48:27.194Z,99244.88
2022-08-12T10:51:56.449Z,99234.69
2022-08-12T10:54:00.451Z,99229.94
2022-08-12T10:56:34.587Z,99229.84
2022-08-12T10:59:10.916Z,99230.44
2022-08-12T11:04:19.466Z,99215.63
2022-08-12T11:04:45.215Z,99216.75
2022-08-12T11:08:37.620Z,99230.84
2022-08-12T11:10:07.396Z,99217.75
2022-08-12T11:12:59.949Z,99207.69
2022-08-12T11:15:33.107Z,99216.47
2022-08-12T11:18:18.834Z,99219.78
2022-08-12T11:20:48.528Z,99205.97
2022-08-12T11:23:25.306Z,99212.91
2022-08-12T11:26:06.992Z,99211.19
2022-08-12T11:28:36.988Z,99210.75
2022-08-12T11:31:11.866Z,99200.16
2022-08-12T11:34:05.377Z,99191.19
2022-08-12T11:36:31.619Z,99198.78
2022-08-12T11:39:04.159Z,99188.31
2022-08-12T11:41:32.985Z,99180.31
2022-08-12T11:44:24.080Z,99190.19
2022-08-12T11:46:52.550Z,99179.59
2022-08-12T11:49:30.954Z,99175.19
2022-08-12T11:52:02.267Z,99163.91
2022-08-12T11:54:30.580Z,99185.38
2022-08-12T11:57:00.322Z,99184.81
2022-08-12T12:02:20.767Z,99172.69
2022-08-12T12:04:52.683Z,99179.25
2022-08-12T12:08:35.897Z,99173.81
2022-08-12T12:10:13.227Z,99164.84
2022-08-12T12:12:50.072Z,99174.72
2022-08-12T12:15:24.965Z,99172.28
2022-08-12T12:18:05.161Z,99169.28
2022-08-12T12:20:35.385Z,99168.91
2022-08-12T12:23:04.577Z,99160.94
2022-08-12T12:25:59.415Z,99157.63
2022-08-12T12:28:37.011Z,99158.09
2022-08-12T12:31:15.247Z,99155.50
2022-08-12T12:33:58.048Z,99142.78
2022-08-12T12:36:30.282Z,99141.84
2022-08-12T12:39:00.065Z,99143.31
2022-08-12T12:42:41.705Z,99132.84
2022-08-12T12:44:30.232Z,99139.34
2022-08-12T12:47:29.230Z,99138.72
2022-08-12T12:49:54.083Z,99134.31
2022-08-12T12:52:26.770Z,99123.94
2022-08-12T12:54:58.825Z,99127.25
2022-08-12T12:57:36.186Z,99130.81
2022-08-12T13:00:16.023Z,99129.16
2022-08-12T13:02:46.162Z,99130.94
2022-08-12T13:05:27.821Z,99126.00
2022-08-12T13:08:01.342Z,99126.16
2022-08-12T13:10:36.985Z,99123.63
2022-08-12T13:14:07.845Z,99115.84
2022-08-12T13:15:59.254Z,99117.69
2022-08-12T13:18:28.880Z,99118.00
2022-08-12T13:20:59.428Z,99115.66
2022-08-12T13:23:36.355Z,99117.50
2022-08-12T13:26:14.256Z,99124.75
2022-08-12T13:28:46.447Z,99116.00
2022-08-12T13:31:22.333Z,99111.09
2022-08-12T13:34:31.783Z,99111.78
2022-08-12T13:36:42.402Z,99101.78
2022-08-12T13:39:11.917Z,99101.16
2022-08-12T13:41:39.885Z,99091.34
2022-08-12T13:44:10.401Z,99107.44
2022-08-12T13:46:40.919Z,99102.66
2022-08-12T13:49:11.504Z,99097.44
2022-08-12T13:51:54.237Z,99099.97
2022-08-12T13:54:23.526Z,99105.50
2022-08-12T13:56:51.617Z,99107.34
2022-08-12T13:59:24.498Z,99113.88
2022-08-12T14:01:54.377Z,99101.16
2022-08-12T14:04:24.984Z,99103.50
2022-08-12T14:06:54.057Z,99102.28
2022-08-12T14:09:23.266Z,99108.66
2022-08-12T14:11:59.396Z,99105.19
2022-08-12T14:14:31.259Z,99093.63
2022-08-12T14:17:05.625Z,99096.00
2022-08-12T14:19:48.685Z,99089.34
2022-08-12T14:22:21.622Z,99094.63
2022-08-12T14:24:58.301Z,99103.84
2022-08-12T14:28:02.551Z,99101.34
2022-08-12T14:30:24.334Z,99100.97
2022-08-12T14:32:57.659Z,99090.03
2022-08-12T14:35:25.577Z,99086.34
2022-08-12T14:37:56.605Z,99086.19
2022-08-12T14:40:29.554Z,99080.94
2022-08-12T14:42:58.363Z,99078.66
2022-08-12T14:45:45.256Z,99083.00
2022-08-12T14:48:15.966Z,99084.63
2022-08-12T14:52:10.380Z,99081.97
2022-08-12T14:59:56.736Z,99090.00
2022-08-12T15:02:21.429Z,99086.34
2022-08-12T15:04:59.195Z,99090.19
2022-08-12T15:07:33.809Z,99082.00
2022-08-12T15:10:13.707Z,99085.34
2022-08-12T15:12:42.864Z,99079.25
2022-08-12T15:15:11.843Z,99077.13
2022-08-12T15:17:39.857Z,99070.22
2022-08-12T15:20:31.107Z,99072.94
2022-08-12T15:22:58.052Z,99064.34
2022-08-12T15:25:26.272Z,99078.03
2022-08-12T15:28:20.380Z,99074.97
2022-08-12T15:30:44.439Z,99062.78
2022-08-12T15:33:18.743Z,99064.25
2022-08-12T15:35:53.863Z,99063.00
2022-08-12T15:38:25.253Z,99057.84
2022-08-12T15:40:54.732Z,99060.06
2022-08-12T15:43:52.043Z,99059.19
2022-08-12T15:46:15.006Z,99053.81
2022-08-12T15:48:47.123Z,99058.19
2022-08-12T15:51:57.360Z,99057.97
2022-08-12T15:54:33.723Z,99053.81
2022-08-12T15:57:03.442Z,99055.13
2022-08-12T16:00:03.911Z,99052.31
2022-08-12T16:02:21.234Z,99046.28
2022-08-12T16:04:50.418Z,99052.03
2022-08-12T16:07:26.217Z,99047.41
2022-08-12T16:10:08.410Z,99048.31
2022-08-12T16:12:54.922Z,99055.97
2022-08-12T16:15:29.546Z,99059.09
2022-08-12T16:18:19.071Z,99061.06
2022-08-12T16:20:48.146Z,99055.63
2022-08-12T16:23:35.909Z,99051.94
2022-08-12T16:26:15.180Z,99054.56
2022-08-12T16:28:48.173Z,99061.53
2022-08-12T16:31:23.391Z,99051.97
2022-08-12T16:33:59.535Z,99050.94
2022-08-12T16:36:29.685Z,99043.69
2022-08-12T16:38:57.741Z,99046.66
2022-08-12T16:41:33.422Z,99053.50
2022-08-12T16:44:08.311Z,99047.88
2022-08-12T16:46:38.288Z,99049.69
2022-08-12T16:49:09.199Z,99042.53
2022-08-12T16:51:46.449Z,99045.78
2022-08-12T16:54:17.195Z,99050.53
2022-08-12T16:56:51.155Z,99050.53
2022-08-12T16:59:23.255Z,99045.66
2022-08-12T17:01:54.025Z,99048.25
2022-08-12T17:04:24.763Z,99047.78
2022-08-12T17:06:52.787Z,99043.31
2022-08-12T17:09:21.001Z,99048.66
2022-08-12T17:11:50.317Z,99043.97
2022-08-12T17:14:20.373Z,99042.53
2022-08-12T17:16:54.803Z,99045.28
2022-08-12T17:20:02.594Z,99051.69
2022-08-12T17:22:16.396Z,99035.28
2022-08-12T17:24:50.577Z,99047.63
2022-08-12T17:27:24.489Z,99051.28
2022-08-12T17:30:02.019Z,99040.06
2022-08-12T17:32:36.927Z,99038.78
2022-08-12T17:35:29.805Z,99037.00
2022-08-12T17:38:06.983Z,99039.28
2022-08-12T17:40:37.228Z,99044.13
2022-08-12T17:43:54.763Z,99042.97
2022-08-12T17:45:59.857Z,99052.97
2022-08-12T17:48:34.867Z,99057.34
2022-08-12T17:51:15.391Z,99049.66
2022-08-12T17:54:11.416Z,99049.19
2022-08-12T17:56:37.690Z,99048.00
2022-08-12T17:59:07.637Z,99047.72
2022-08-12T18:01:36.639Z,99048.03
2022-08-12T18:04:21.888Z,99051.16
2022-08-12T18:06:51.497Z,99052.75
2022-08-12T18:09:21.593Z,99063.81
2022-08-12T18:12:12.094Z,99063.19
2022-08-12T18:14:41.190Z,99069.69
2022-08-12T18:17:11.369Z,99070.34
2022-08-12T18:20:06.915Z,99071.50
2022-08-12T18:22:32.782Z,99080.19
2022-08-12T18:25:04.789Z,99089.38
2022-08-12T18:27:44.002Z,99087.47
2022-08-12T18:30:29.307Z,99089.72
2022-08-12T18:33:03.988Z,99091.84
2022-08-12T18:35:47.435Z,99095.16
2022-08-12T18:38:22.498Z,99098.31
2022-08-12T18:41:09.695Z,99100.72
2022-08-12T18:43:59.662Z,99097.50
2022-08-12T18:46:35.920Z,99100.94
2022-08-12T18:49:18.821Z,99096.22
2022-08-12T18:51:55.105Z,99097.06
2022-08-12T18:54:26.743Z,99104.88
2022-08-12T18:56:57.595Z,99103.06
2022-08-12T19:00:02.163Z,99106.09
2022-08-12T19:02:21.322Z,99109.31
2022-08-12T19:04:51.485Z,99108.53
2022-08-12T19:07:24.737Z,99108.16
2022-08-12T19:09:58.371Z,99110.81
2022-08-12T19:12:55.372Z,99123.44
2022-08-12T19:15:25.894Z,99124.72
2022-08-12T19:17:56.428Z,99129.22
2022-08-12T19:20:30.842Z,99135.28
2022-08-12T19:23:07.881Z,99131.72
2022-08-12T19:25:59.614Z,99136.38
2022-08-12T19:28:35.301Z,99138.25
2022-08-12T19:31:58.719Z,99128.50
2022-08-12T19:37:27.063Z,99134.72
2022-08-12T19:40:10.189Z,99133.94
2022-08-12T19:42:53.886Z,99124.38
2022-08-12T19:45:43.969Z,99136.22
2022-08-12T19:48:19.912Z,99134.25
2022-08-12T19:50:52.423Z,99137.88
2022-08-12T19:53:22.582Z,99139.69
2022-08-12T19:55:54.768Z,99133.19
2022-08-12T19:58:24.317Z,99143.50
2022-08-12T20:00:55.014Z,99144.78
2022-08-12T20:03:38.033Z,99147.63
2022-08-12T20:06:13.626Z,99145.97
2022-08-12T20:08:49.366Z,99146.53
2022-08-12T20:12:11.622Z,99151.03
2022-08-12T20:14:18.073Z,99160.88
2022-08-12T20:16:52.240Z,99155.13
2022-08-12T20:19:24.589Z,99155.72
2022-08-12T20:22:14.840Z,99163.72
2022-08-12T20:24:48.449Z,99152.72
2022-08-12T20:27:29.237Z,99160.06
2022-08-12T20:30:11.505Z,99152.47
2022-08-12T20:32:47.626Z,99150.38
2022-08-12T20:35:19.668Z,99150.13
2022-08-12T20:38:07.181Z,99152.25
2022-08-12T20:40:41.942Z,99152.97
2022-08-12T20:43:19.038Z,99161.44
2022-08-12T20:45:57.417Z,99152.38
2022-08-12T20:48:28.577Z,99160.34
2022-08-12T20:51:04.510Z,99165.88
2022-08-12T20:53:54.140Z,99161.97
2022-08-12T20:56:30.271Z,99166.75
2022-08-12T20:59:02.702Z,99166.03
2022-08-12T21:01:45.936Z,99170.94
2022-08-12T21:04:35.379Z,99163.94
2022-08-12T21:07:09.458Z,99170.97
2022-08-12T21:09:41.502Z,99172.97
2022-08-12T21:12:27.795Z,99176.50
2022-08-12T21:15:17.491Z,99171.69
2022-08-12T21:18:01.128Z,99177.16
2022-08-12T21:20:37.863Z,99174.16
2022-08-12T21:23:07.538Z,99168.19
2022-08-12T21:25:35.820Z,99171.31
2022-08-12T21:28:07.476Z,99170.78
2022-08-12T21:30:37.291Z,99172.59
2022-08-12T21:33:09.859Z,99177.19
2022-08-12T21:35:42.862Z,99175.34
2022-08-12T21:38:10.749Z,99174.56
2022-08-12T21:40:51.546Z,99178.78
2022-08-12T21:43:21.098Z,99176.69
2022-08-12T21:46:00.704Z,99177.56
2022-08-12T21:48:29.739Z,99187.09
2022-08-12T21:50:57.554Z,99180.81
2022-08-12T21:54:05.760Z,99181.66
2022-08-12T21:56:34.112Z,99179.03
2022-08-12T21:59:02.924Z,99182.13
2022-08-12T22:01:47.606Z,99178.41
2022-08-12T22:04:35.324Z,99176.75
2022-08-12T22:07:03.350Z,99184.56
2022-08-12T22:09:43.409Z,99173.94
2022-08-12T22:12:29.178Z,99180.00
2022-08-12T22:14:57.076Z,99185.03
2022-08-12T22:17:50.344Z,99177.44
2022-08-12T22:20:22.426Z,99185.69
2022-08-12T22:23:00.458Z,99184.22
2022-08-12T22:25:30.498Z,99181.88
2022-08-12T22:28:18.014Z,99182.59
2022-08-12T22:31:10.744Z,99177.75
2022-08-12T22:33:54.083Z,99182.41
2022-08-12T22:36:29.113Z,99191.06
2022-08-12T22:38:59.303Z,99187.00
2022-08-12T22:41:56.695Z,99195.66
2022-08-12T22:44:54.315Z,99183.44
2022-08-12T22:47:53.680Z,99183.31
2022-08-12T22:50:27.543Z,99195.38
2022-08-12T22:53:15.062Z,99190.22
2022-08-12T22:55:59.889Z,99181.59
2022-08-12T22:58:36.890Z,99172.91
2022-08-12T23:01:10.815Z,99166.53
2022-08-12T23:03:48.713Z,99159.84
2022-08-12T23:06:23.174Z,99163.84
2022-08-12T23:08:51.846Z,99163.91
2022-08-12T23:11:23.871Z,99156.00
2022-08-12T23:13:57.064Z,99162.13
2022-08-12T23:16:30.922Z,99160.28
2022-08-12T23:19:09.467Z,99163.56
2022-08-12T23:22:05.954Z,99158.72
2022-08-12T23:24:32.538Z,99155.50
2022-08-12T23:27:21.739Z,99157.97
2022-08-12T23:30:17.534Z,99158.75
2022-08-12T23:32:38.415Z,99158.44
2022-08-12T23:35:08.032Z,99159.28
2022-08-12T23:37:47.577Z,99169.50
2022-08-12T23:40:22.469Z,99161.22
2022-08-12T23:42:54.260Z,99161.81
2022-08-12T23:45:31.379Z,99167.97
2022-08-12T23:48:00.480Z,99166.38
2022-08-12T23:50:33.720Z,99167.91
2022-08-12T23:53:17.091Z,99171.75
2022-08-12T23:55:50.649Z,99163.63
2022-08-12T23:58:25.942Z,99162.84
